»·PEaware :: N172TT KBUR-KSAN

N172TT :: KBUR-KSAN

FLIGHT INFORMATION

Flight Status: Arrived
Operator: Privately registered:
United States
More flights under this callsign
Pilot: Thomas T. (19955)
Aircraft: BEECH AIRCRAFT BARON
(BE58)
More flights by this aircraft type
Origin: KBUR Bob Hope-Burbank
United States
Destination: KSAN San Diego Intl-Lindbergh
United States
More flights between these airports :: More routes between these airports
Route: +ELMOO8 ELMOO V186 HAILE V66 MZB
File this flight plan on PilotEdge
Remarks: TEC route BURP29
Altitude:
(Current/Filed)
9,000ft
Speed:
(Current/Filed)
168kts
Departed: 31-Jan-19 01:14 PM
Arrived: 31-Jan-19 02:12 PM
Distance/Time
Traveled:
106nm/0:58
Distance/Time
To Go:
Arrived

Flight Plot

Page will automatically refresh every two minutes.


Map Options




Map Legend


Flown Route
Filed Route
Departure Airport
Arrival Airport
Navaid (VOR, NDB)
Fix

Horizontal Profiles

Position Reports

Time Latitude Longitude Heading Altitude Ground
Speed
31-Jan-19 12:29 34.200203 -118.358746 263 734ft 0kts
31-Jan-19 12:30 34.200203 -118.358746 263 734ft 0kts
31-Jan-19 12:31 34.200203 -118.358746 263 734ft 0kts
31-Jan-19 12:32 34.200203 -118.358746 263 734ft 0kts
31-Jan-19 12:33 34.200203 -118.358746 263 734ft 0kts
31-Jan-19 12:34 34.200203 -118.358746 263 734ft 0kts
31-Jan-19 12:35 34.200203 -118.358746 263 734ft 0kts
31-Jan-19 12:36 34.200203 -118.358746 263 734ft 0kts
31-Jan-19 12:37 34.200203 -118.358746 263 734ft 0kts
31-Jan-19 12:38 34.200203 -118.358746 263 734ft 0kts
31-Jan-19 12:39 34.200203 -118.358746 263 734ft 0kts
31-Jan-19 12:40 34.200203 -118.358746 263 734ft 0kts
31-Jan-19 12:41 34.200203 -118.358746 263 734ft 0kts
31-Jan-19 12:42 34.200203 -118.358746 263 734ft 0kts
31-Jan-19 12:43 34.200203 -118.358746 263 734ft 0kts
31-Jan-19 12:44 34.200203 -118.358746 263 734ft 0kts
31-Jan-19 12:45 34.200203 -118.358746 263 734ft 0kts
31-Jan-19 12:46 34.200203 -118.358746 263 734ft 0kts
31-Jan-19 12:47 34.200203 -118.358746 263 734ft 0kts
31-Jan-19 12:48 34.200203 -118.358746 263 734ft 0kts
31-Jan-19 12:49 34.200203 -118.358746 263 734ft 0kts
31-Jan-19 12:50 34.200203 -118.358746 263 734ft 0kts
31-Jan-19 12:51 34.200203 -118.358746 263 734ft 0kts
31-Jan-19 12:52 34.200203 -118.358746 263 734ft 0kts
31-Jan-19 12:53 34.200203 -118.358746 263 734ft 0kts
31-Jan-19 12:54 34.200203 -118.358746 263 734ft 0kts
31-Jan-19 12:55 34.200203 -118.358746 263 734ft 0kts
31-Jan-19 12:56 34.200203 -118.358746 263 734ft 0kts
31-Jan-19 12:57 34.200203 -118.358746 263 734ft 0kts
31-Jan-19 12:58 34.200203 -118.358746 263 734ft 0kts
31-Jan-19 12:59 34.200203 -118.358746 263 734ft 0kts
31-Jan-19 13:00 34.200203 -118.358746 263 734ft 0kts
31-Jan-19 13:01 34.200203 -118.358746 263 734ft 0kts
31-Jan-19 13:02 34.200203 -118.358746 262 734ft 0kts
31-Jan-19 13:03 34.198948 -118.360988 271 734ft 14kts
31-Jan-19 13:04 34.199116 -118.367226 271 734ft 21kts
31-Jan-19 13:05 34.198972 -118.368985 217 734ft 0kts
31-Jan-19 13:06 34.198972 -118.368985 217 734ft 0kts
31-Jan-19 13:07 34.198972 -118.368985 217 734ft 0kts
31-Jan-19 13:08 34.198686 -118.369082 186 734ft 3kts
31-Jan-19 13:09 34.198679 -118.369083 186 734ft 0kts
31-Jan-19 13:10 34.198679 -118.369083 186 734ft 0kts
31-Jan-19 13:11 34.198679 -118.369083 186 734ft 0kts
31-Jan-19 13:12 34.198679 -118.369083 186 734ft 0kts
31-Jan-19 13:13 34.197823 -118.360683 90 794ft 100kts
31-Jan-19 13:14 34.182911 -118.320303 133 1629ft 152kts
31-Jan-19 13:15 34.159949 -118.276739 119 2567ft 158kts
31-Jan-19 13:16 34.142384 -118.227862 110 3377ft 159kts
31-Jan-19 13:17 34.127398 -118.177771 109 4155ft 158kts
31-Jan-19 13:18 34.112346 -118.127508 108 4788ft 167kts
31-Jan-19 13:19 34.118652 -118.080652 7 5268ft 163kts
31-Jan-19 13:20 34.157540 -118.099207 21 5843ft 164kts
31-Jan-19 13:21 34.150282 -118.055218 140 6378ft 173kts
31-Jan-19 13:22 34.114642 -118.018774 141 6948ft 173kts
31-Jan-19 13:23 34.079016 -117.981706 134 7007ft 189kts
31-Jan-19 13:24 34.055820 -117.934015 113 7003ft 192kts
31-Jan-19 13:25 34.037196 -117.876097 109 7000ft 193kts
31-Jan-19 13:26 34.019428 -117.817204 109 6997ft 193kts
31-Jan-19 13:27 34.000125 -117.752808 109 6992ft 194kts
31-Jan-19 13:28 33.981771 -117.691586 109 6986ft 194kts
31-Jan-19 13:29 33.963484 -117.630604 109 6978ft 194kts
31-Jan-19 13:30 33.944771 -117.569497 122 6964ft 193kts
31-Jan-19 13:31 33.902817 -117.530277 146 6972ft 191kts
31-Jan-19 13:32 33.860835 -117.493821 147 6975ft 191kts
31-Jan-19 13:34 33.819591 -117.457964 147 6977ft 190kts
31-Jan-19 13:35 33.779501 -117.423103 147 7155ft 182kts
31-Jan-19 13:36 33.741630 -117.390234 148 7585ft 175kts
31-Jan-19 13:37 33.704576 -117.358127 149 7973ft 173kts
31-Jan-19 13:38 33.665420 -117.324240 149 8350ft 172kts
31-Jan-19 13:39 33.627797 -117.291703 149 8693ft 171kts
31-Jan-19 13:40 33.593733 -117.262275 149 8993ft 170kts
31-Jan-19 13:41 33.558408 -117.231835 149 8986ft 177kts
31-Jan-19 13:42 33.522466 -117.200833 149 8988ft 176kts
31-Jan-19 13:43 33.490318 -117.173145 148 8990ft 174kts
31-Jan-19 13:44 33.450692 -117.156431 171 8992ft 167kts
31-Jan-19 13:45 33.402452 -117.145672 172 8991ft 166kts
31-Jan-19 13:46 33.353826 -117.135287 172 8988ft 166kts
31-Jan-19 13:47 33.306963 -117.125353 172 8984ft 165kts
31-Jan-19 13:48 33.260479 -117.115523 172 8982ft 165kts
31-Jan-19 13:49 33.218197 -117.087121 150 8324ft 189kts
31-Jan-19 13:50 33.175527 -117.053381 149 7277ft 196kts
31-Jan-19 13:51 33.134823 -117.021559 149 6992ft 176kts
31-Jan-19 13:52 33.094863 -116.990267 149 6995ft 171kts
31-Jan-19 13:52 33.061602 -116.964219 149 6996ft 171kts
31-Jan-19 13:53 33.021699 -116.933012 149 6996ft 172kts
31-Jan-19 13:54 32.981601 -116.901666 149 6996ft 173kts
31-Jan-19 13:56 32.934161 -116.864780 149 6997ft 174kts
31-Jan-19 13:57 32.893449 -116.833033 149 7004ft 174kts
31-Jan-19 13:57 32.858568 -116.827292 187 6687ft 183kts
31-Jan-19 13:58 32.812373 -116.834395 188 5989ft 178kts
31-Jan-19 13:59 32.767512 -116.843198 188 5210ft 173kts
31-Jan-19 14:00 32.723810 -116.850031 188 4976ft 153kts
31-Jan-19 14:01 32.684340 -116.856162 188 4979ft 147kts
31-Jan-19 14:02 32.660924 -116.884594 260 4781ft 165kts
31-Jan-19 14:03 32.673667 -116.943805 281 3998ft 157kts
31-Jan-19 14:04 32.683150 -116.983035 278 4022ft 126kts
31-Jan-19 14:05 32.692844 -117.022327 278 3190ft 123kts
31-Jan-19 14:06 32.701475 -117.057541 276 2320ft 99kts
31-Jan-19 14:07 32.709341 -117.089966 278 1726ft 109kts
31-Jan-19 14:08 32.717832 -117.124545 275 1347ft 106kts
31-Jan-19 14:09 32.725450 -117.154613 274 521ft 103kts
31-Jan-19 14:10 32.732688 -117.186411 282 19ft 59kts
31-Jan-19 14:11 32.732003 -117.189836 193 19ft 0kts

Navigation Log

Ident Type
Flight plan parsing failed, navigation log unavailable